Time;durP1;ratioP1;P1;durP2;ratioP2;P2;SDS_P1;SDS_P2;PMS_P1;PMS_P2;Temp;Humidity;BMP_temperature;BMP_pressure;BME280_temperature;BME280_humidity;BME280_pressure;Samples;Min_cycle;Max_cycle;Signal;HPM_P1;HPM_P2
2021/01/27 00:01:39;;;;;;;;;;;-1.50;79.00;;;;;;5107012;28;19990;-67
2021/01/27 00:04:05;;;;;;;;;;;-1.60;79.20;;;;;;5106049;28;20635;-67
2021/01/27 00:06:30;;;;;;;;;;;-1.70;79.30;;;;;;5106366;28;20199;-65
2021/01/27 00:08:56;;;;;;;;;;;-1.70;79.80;;;;;;5106762;28;19908;-65
2021/01/27 00:11:21;;;;;;;;;;;-1.80;80.10;;;;;;5107422;28;19914;-67
2021/01/27 00:13:47;;;;;;;;;;;-1.90;80.20;;;;;;5106410;28;19968;-67
2021/01/27 00:16:12;;;;;;;;;;;-1.90;80.20;;;;;;5107138;28;19955;-66
2021/01/27 00:18:37;;;;;;;;;;;-2.00;80.30;;;;;;5107004;28;19907;-66
2021/01/27 00:21:05;;;;;;;;;;;-2.00;80.60;;;;;;5106609;28;19921;-65
2021/01/27 00:23:31;;;;;;;;;;;-2.00;80.50;;;;;;5088710;28;19911;-66
2021/01/27 00:25:56;;;;;;;;;;;-2.10;80.70;;;;;;5106851;28;19908;-66
2021/01/27 00:28:22;;;;;;;;;;;-2.10;80.60;;;;;;5106414;28;20002;-67
2021/01/27 00:30:47;;;;;;;;;;;-2.10;80.80;;;;;;5106411;28;19915;-67
2021/01/27 00:33:14;;;;;;;;;;;-2.20;80.80;;;;;;5106659;28;19908;-66
2021/01/27 00:35:41;;;;;;;;;;;-2.20;81.50;;;;;;5106923;28;19912;-66
2021/01/27 00:38:11;;;;;;;;;;;-2.20;80.90;;;;;;5106257;28;19908;-67
2021/01/27 00:40:36;;;;;;;;;;;-2.20;80.80;;;;;;5106834;28;20256;-67
2021/01/27 00:43:02;;;;;;;;;;;-2.20;80.10;;;;;;5087686;28;20399;-67
2021/01/27 00:45:28;;;;;;;;;;;-2.20;79.70;;;;;;5106714;28;19998;-67
2021/01/27 00:47:53;;;;;;;;;;;-2.20;80.00;;;;;;5106414;28;19954;-66
2021/01/27 00:50:19;;;;;;;;;;;-2.10;80.00;;;;;;5106785;28;20250;-67
2021/01/27 00:52:44;;;;;;;;;;;-2.10;79.10;;;;;;5106586;28;19972;-66
2021/01/27 00:55:14;;;;;;;;;;;-2.10;78.50;;;;;;5106439;28;20394;-67
2021/01/27 00:57:40;;;;;;;;;;;-1.90;77.20;;;;;;5107104;28;19915;-66
2021/01/27 01:00:08;;;;;;;;;;;-1.80;76.30;;;;;;5087788;28;19989;-65
2021/01/27 01:02:38;;;;;;;;;;;-1.80;76.30;;;;;;5106045;28;19915;-67
2021/01/27 01:05:05;;;;;;;;;;;-1.80;76.40;;;;;;5106920;28;19907;-66
2021/01/27 01:07:31;;;;;;;;;;;-1.70;75.00;;;;;;5106424;28;19963;-67
2021/01/27 01:09:56;;;;;;;;;;;-1.60;74.40;;;;;;5106533;28;19955;-67
2021/01/27 01:12:21;;;;;;;;;;;-1.60;74.00;;;;;;5106895;28;20261;-66
2021/01/27 01:14:47;;;;;;;;;;;-1.60;73.90;;;;;;5109720;28;19911;-66
2021/01/27 01:17:12;;;;;;;;;;;-1.50;72.40;;;;;;5109948;28;19915;-66
2021/01/27 01:19:38;;;;;;;;;;;-1.40;71.20;;;;;;5110238;28;19907;-65
2021/01/27 01:22:03;;;;;;;;;;;-1.30;71.10;;;;;;5109867;28;19930;-65
2021/01/27 01:24:29;;;;;;;;;;;-1.30;71.60;;;;;;5109706;28;19907;-65
2021/01/27 01:26:55;;;;;;;;;;;-1.40;72.30;;;;;;5109646;28;19961;-65
2021/01/27 01:29:20;;;;;;;;;;;-1.50;72.60;;;;;;5090965;28;20007;-67
2021/01/27 01:31:46;;;;;;;;;;;-1.50;73.20;;;;;;5110012;28;20336;-67
2021/01/27 01:34:12;;;;;;;;;;;-1.60;73.70;;;;;;5109637;28;19945;-65
2021/01/27 01:36:37;;;;;;;;;;;-1.70;75.10;;;;;;5109920;28;20283;-66
2021/01/27 01:39:03;;;;;;;;;;;-1.80;74.70;;;;;;5109943;28;19963;-67
2021/01/27 01:41:28;;;;;;;;;;;-1.90;74.90;;;;;;5091373;28;20152;-67
2021/01/27 01:43:54;;;;;;;;;;;-2.00;74.90;;;;;;5109213;28;19929;-66
2021/01/27 01:46:21;;;;;;;;;;;-2.00;75.70;;;;;;5109346;28;20265;-67
2021/01/27 01:48:52;;;;;;;;;;;-2.10;76.30;;;;;;5109819;28;19928;-65
2021/01/27 01:51:20;;;;;;;;;;;-2.10;76.50;;;;;;5091142;28;20323;-67
2021/01/27 01:53:50;;;;;;;;;;;-2.10;76.70;;;;;;5109548;28;19907;-67
2021/01/27 01:56:17;;;;;;;;;;;-2.10;76.30;;;;;;5109547;28;19927;-66
2021/01/27 01:58:43;;;;;;;;;;;-2.10;75.80;;;;;;5109107;28;19912;-66
2021/01/27 02:01:09;;;;;;;;;;;-2.10;75.40;;;;;;5090711;28;19999;-67
2021/01/27 02:03:35;;;;;;;;;;;-2.00;74.50;;;;;;5091129;28;20734;-67
2021/01/27 02:06:02;;;;;;;;;;;-2.00;74.40;;;;;;5109057;28;19957;-66
2021/01/27 02:08:28;;;;;;;;;;;-2.00;74.60;;;;;;5108909;28;19922;-66
2021/01/27 02:10:53;;;;;;;;;;;-2.00;74.60;;;;;;5090864;28;19926;-66
2021/01/27 02:13:24;;;;;;;;;;;-1.90;73.10;;;;;;5108652;28;20464;-65
2021/01/27 02:15:50;;;;;;;;;;;-1.60;71.70;;;;;;5109043;28;20387;-66
2021/01/27 02:18:42;;;;;;;;;;;-1.50;70.90;;;;;;5108750;28;19908;-67
2021/01/27 02:21:27;;;;;;;;;;;-1.40;70.20;;;;;;5104693;28;19969;-67
2021/01/27 02:24:07;;;;;;;;;;;-1.30;70.00;;;;;;5090071;28;19908;-67
2021/01/27 02:26:53;;;;;;;;;;;-1.30;70.00;;;;;;5108929;28;19915;-66
2021/01/27 02:29:25;;;;;;;;;;;-1.30;69.40;;;;;;5107716;28;20048;-67
2021/01/27 02:32:21;;;;;;;;;;;-1.30;69.70;;;;;;5108627;28;19911;-66
2021/01/27 02:35:02;;;;;;;;;;;-1.40;70.00;;;;;;5108776;28;19915;-67
2021/01/27 02:37:34;;;;;;;;;;;-1.40;70.30;;;;;;5089841;28;20028;-67
2021/01/27 02:40:03;;;;;;;;;;;-1.50;71.00;;;;;;5108566;28;20613;-67
2021/01/27 02:42:36;;;;;;;;;;;-1.60;71.50;;;;;;5089895;28;19918;-66
2021/01/27 02:45:06;;;;;;;;;;;-1.70;72.10;;;;;;5108544;28;19911;-66
2021/01/27 02:47:50;;;;;;;;;;;-1.80;72.50;;;;;;5108720;28;19916;-66
2021/01/27 02:50:19;;;;;;;;;;;-1.90;72.70;;;;;;5108299;28;19923;-67
2021/01/27 02:52:51;;;;;;;;;;;-1.90;72.30;;;;;;5108336;28;20427;-67
2021/01/27 02:55:21;;;;;;;;;;;-1.90;72.80;;;;;;5108239;28;19903;-67
2021/01/27 02:57:51;;;;;;;;;;;-2.00;73.50;;;;;;5107779;28;19915;-66
2021/01/27 03:00:26;;;;;;;;;;;-2.10;73.70;;;;;;5107978;28;19908;-67
2021/01/27 03:02:51;;;;;;;;;;;-2.10;73.60;;;;;;5108222;28;19922;-66
2021/01/27 03:05:19;;;;;;;;;;;-2.10;73.30;;;;;;5107549;28;19926;-66
2021/01/27 03:07:52;;;;;;;;;;;-2.20;73.30;;;;;;5108003;28;19908;-67
2021/01/27 03:10:22;;;;;;;;;;;-2.20;73.70;;;;;;5089520;28;19912;-66
2021/01/27 03:12:49;;;;;;;;;;;-2.10;73.50;;;;;;5107771;28;20368;-67
2021/01/27 03:15:15;;;;;;;;;;;-1.90;72.50;;;;;;5107954;28;19914;-67
2021/01/27 03:17:42;;;;;;;;;;;-1.80;71.70;;;;;;5107591;28;20299;-67
2021/01/27 03:20:10;;;;;;;;;;;-1.70;71.70;;;;;;5107775;28;19907;-66
2021/01/27 03:22:39;;;;;;;;;;;-1.70;72.30;;;;;;5107564;28;19914;-65
2021/01/27 03:25:07;;;;;;;;;;;-1.80;72.90;;;;;;5089497;28;19907;-67
2021/01/27 03:27:36;;;;;;;;;;;-1.90;73.40;;;;;;5107534;28;20292;-65
2021/01/27 03:30:05;;;;;;;;;;;-2.00;73.60;;;;;;5107462;28;19923;-66
2021/01/27 03:32:37;;;;;;;;;;;-2.20;74.40;;;;;;5089189;28;20383;-66
2021/01/27 03:35:07;;;;;;;;;;;-2.30;75.20;;;;;;5107506;28;19908;-66
2021/01/27 03:37:58;;;;;;;;;;;-2.40;75.60;;;;;;5107614;28;19953;-66
2021/01/27 03:40:25;;;;;;;;;;;-2.50;76.80;;;;;;5103114;28;20426;-67
2021/01/27 03:43:16;;;;;;;;;;;-2.60;76.80;;;;;;5106627;28;19904;-67
2021/01/27 03:45:55;;;;;;;;;;;-2.70;77.00;;;;;;5103353;28;19939;-66
2021/01/27 03:48:28;;;;;;;;;;;-2.70;78.00;;;;;;5107134;28;19998;-66
2021/01/27 03:50:55;;;;;;;;;;;-2.60;77.10;;;;;;5107387;28;20375;-67
2021/01/27 03:53:23;;;;;;;;;;;-2.60;76.40;;;;;;5107200;28;20420;-66
2021/01/27 03:55:54;;;;;;;;;;;-2.50;76.70;;;;;;5106788;28;19939;-66
2021/01/27 03:58:29;;;;;;;;;;;-2.50;76.70;;;;;;5088568;28;20031;-67
2021/01/27 04:01:21;;;;;;;;;;;-2.50;76.90;;;;;;5107222;28;19914;-65
2021/01/27 04:03:49;;;;;;;;;;;-2.60;77.00;;;;;;5085693;28;20291;-66
2021/01/27 04:06:14;;;;;;;;;;;-2.70;77.60;;;;;;5088840;28;19904;-66
2021/01/27 04:08:40;;;;;;;;;;;-2.70;77.60;;;;;;5107106;28;19923;-66
2021/01/27 04:11:06;;;;;;;;;;;-2.80;78.00;;;;;;5106797;28;19915;-68
2021/01/27 04:13:31;;;;;;;;;;;-2.80;78.80;;;;;;5106867;28;19934;-67
2021/01/27 04:15:57;;;;;;;;;;;-2.90;79.00;;;;;;5106617;28;19907;-67
2021/01/27 04:18:23;;;;;;;;;;;-3.00;79.30;;;;;;5088672;28;19912;-67
2021/01/27 04:20:48;;;;;;;;;;;-3.10;79.50;;;;;;5107051;28;20369;-66
2021/01/27 04:23:14;;;;;;;;;;;-3.20;79.30;;;;;;5106810;28;19960;-66
2021/01/27 04:25:39;;;;;;;;;;;-3.20;79.40;;;;;;5106331;28;19958;-66
2021/01/27 04:28:05;;;;;;;;;;;-3.20;79.90;;;;;;5088666;28;20383;-68
2021/01/27 04:30:32;;;;;;;;;;;-3.30;80.60;;;;;;5106344;28;20311;-65
2021/01/27 04:32:58;;;;;;;;;;;-3.30;80.90;;;;;;5107047;28;20003;-66
2021/01/27 04:35:24;;;;;;;;;;;-3.30;80.80;;;;;;5107360;28;19919;-66
2021/01/27 04:37:50;;;;;;;;;;;-3.30;81.70;;;;;;5106892;28;19904;-66
2021/01/27 04:40:24;;;;;;;;;;;-3.30;81.60;;;;;;5106971;28;19904;-67
2021/01/27 04:42:51;;;;;;;;;;;-3.40;82.10;;;;;;5106760;28;19907;-67
2021/01/27 04:45:16;;;;;;;;;;;-3.50;82.90;;;;;;5106486;28;19904;-67
2021/01/27 04:47:50;;;;;;;;;;;-3.50;82.50;;;;;;5107991;28;19908;-68
2021/01/27 04:50:36;;;;;;;;;;;-3.50;83.00;;;;;;5110554;28;20333;-66
2021/01/27 04:53:01;;;;;;;;;;;-3.50;83.50;;;;;;5109550;28;19911;-66
2021/01/27 04:55:37;;;;;;;;;;;-3.40;83.20;;;;;;5110326;28;19903;-67
2021/01/27 04:58:22;;;;;;;;;;;-3.50;82.90;;;;;;5092404;28;20347;-67
2021/01/27 05:00:52;;;;;;;;;;;-3.50;83.20;;;;;;5092567;28;19994;-67
2021/01/27 05:03:42;;;;;;;;;;;-3.50;83.40;;;;;;5110464;28;19908;-67
2021/01/27 05:06:10;;;;;;;;;;;-3.50;83.20;;;;;;5109778;28;19908;-66
2021/01/27 05:08:40;;;;;;;;;;;-3.40;83.20;;;;;;5110062;28;19907;-67
2021/01/27 05:11:07;;;;;;;;;;;-3.30;83.80;;;;;;5110023;28;20014;-66
2021/01/27 05:13:35;;;;;;;;;;;-3.40;83.80;;;;;;5110358;28;19911;-67
2021/01/27 05:16:03;;;;;;;;;;;-3.30;83.70;;;;;;5109800;28;20383;-65
2021/01/27 05:18:29;;;;;;;;;;;-3.30;83.40;;;;;;5110177;28;19904;-66
2021/01/27 05:20:54;;;;;;;;;;;-3.30;83.10;;;;;;5109919;28;19908;-67
2021/01/27 05:23:20;;;;;;;;;;;-3.20;83.10;;;;;;5091463;28;20014;-67
2021/01/27 05:25:58;;;;;;;;;;;-3.30;83.20;;;;;;5109682;28;20264;-67
2021/01/27 05:28:26;;;;;;;;;;;-3.30;83.40;;;;;;5109498;28;19911;-67
2021/01/27 05:30:55;;;;;;;;;;;-3.40;84.20;;;;;;5110015;28;19916;-67
2021/01/27 05:33:40;;;;;;;;;;;-3.50;84.50;;;;;;5109600;28;20364;-67
2021/01/27 05:36:09;;;;;;;;;;;-3.50;84.70;;;;;;5109938;28;19914;-66
2021/01/27 05:38:35;;;;;;;;;;;-3.60;84.70;;;;;;5091469;28;19904;-67
2021/01/27 05:41:06;;;;;;;;;;;-3.60;84.60;;;;;;5109214;28;19915;-67
2021/01/27 05:43:32;;;;;;;;;;;-3.70;84.60;;;;;;5109834;28;20374;-66
2021/01/27 05:46:12;;;;;;;;;;;-3.70;84.40;;;;;;5109690;28;19908;-67
2021/01/27 05:48:49;;;;;;;;;;;-3.80;84.60;;;;;;5109621;28;20000;-68
2021/01/27 05:51:16;;;;;;;;;;;-3.80;84.30;;;;;;5109665;28;20519;-67
2021/01/27 05:53:42;;;;;;;;;;;-3.70;82.30;;;;;;5109160;28;19907;-67
2021/01/27 05:56:14;;;;;;;;;;;-3.50;81.30;;;;;;5109039;28;19971;-66
2021/01/27 05:58:41;;;;;;;;;;;-3.50;81.50;;;;;;5109092;28;20374;-67
2021/01/27 06:01:29;;;;;;;;;;;-3.50;81.80;;;;;;5109303;28;19907;-67
2021/01/27 06:03:57;;;;;;;;;;;-3.50;82.30;;;;;;5097539;28;19994;-68
2021/01/27 06:06:23;;;;;;;;;;;-3.60;82.40;;;;;;5091075;28;19917;-65
2021/01/27 06:08:54;;;;;;;;;;;-3.60;82.80;;;;;;5090777;28;20980;-67
2021/01/27 06:11:20;;;;;;;;;;;-3.60;82.90;;;;;;5108828;28;19907;-67
2021/01/27 06:13:46;;;;;;;;;;;-3.70;83.10;;;;;;5108773;28;19908;-67
2021/01/27 06:16:16;;;;;;;;;;;-3.70;83.10;;;;;;5109425;28;19908;-68
2021/01/27 06:18:42;;;;;;;;;;;-3.50;82.00;;;;;;5109414;28;20347;-67
2021/01/27 06:21:37;;;;;;;;;;;-3.10;79.60;;;;;;5090368;28;20116;-67
2021/01/27 06:24:02;;;;;;;;;;;-2.90;78.20;;;;;;5090839;28;20178;-67
2021/01/27 06:26:40;;;;;;;;;;;-2.80;77.20;;;;;;5108673;28;20649;-66
2021/01/27 06:29:05;;;;;;;;;;;-2.70;76.40;;;;;;5108794;28;19959;-68
2021/01/27 06:31:34;;;;;;;;;;;-2.60;75.80;;;;;;5108482;28;20595;-66
2021/01/27 06:34:11;;;;;;;;;;;-2.50;75.20;;;;;;5108289;28;20002;-67
2021/01/27 06:36:45;;;;;;;;;;;-2.40;74.50;;;;;;5108872;28;19941;-67
2021/01/27 06:39:10;;;;;;;;;;;-2.30;73.60;;;;;;5108185;28;19914;-67
2021/01/27 06:41:50;;;;;;;;;;;-2.30;73.60;;;;;;5090054;28;19908;-67
2021/01/27 06:44:15;;;;;;;;;;;-2.30;74.20;;;;;;5108046;28;19915;-68
2021/01/27 06:46:51;;;;;;;;;;;-2.30;75.60;;;;;;5108735;28;19911;-67
2021/01/27 06:49:35;;;;;;;;;;;-2.30;75.80;;;;;;5108013;28;19915;-67
2021/01/27 06:52:00;;;;;;;;;;;-2.40;76.20;;;;;;5107897;28;19994;-67
2021/01/27 06:54:29;;;;;;;;;;;-2.40;76.90;;;;;;5107830;28;19998;-67
2021/01/27 06:57:01;;;;;;;;;;;-2.20;76.60;;;;;;5107933;28;19961;-67
2021/01/27 06:59:27;;;;;;;;;;;-1.70;75.40;;;;;;5089905;28;19930;-66
2021/01/27 07:02:07;;;;;;;;;;;-1.10;72.90;;;;;;5108151;28;19908;-67
2021/01/27 07:04:41;;;;;;;;;;;-0.70;71.00;;;;;;5089818;28;20391;-67
2021/01/27 07:07:21;;;;;;;;;;;-0.10;70.50;;;;;;5108160;28;19907;-67
2021/01/27 07:10:01;;;;;;;;;;;0.60;67.00;;;;;;5107435;28;20068;-67
2021/01/27 07:12:29;;;;;;;;;;;1.20;64.00;;;;;;5107728;28;19908;-67
2021/01/27 07:15:07;;;;;;;;;;;1.60;62.90;;;;;;5089600;28;19914;-67
2021/01/27 07:17:50;;;;;;;;;;;2.00;60.70;;;;;;5107918;28;20010;-67
2021/01/27 07:20:22;;;;;;;;;;;2.40;59.30;;;;;;5107993;28;20056;-67
2021/01/27 07:23:06;;;;;;;;;;;2.60;57.20;;;;;;5107646;28;19969;-68
2021/01/27 07:25:50;;;;;;;;;;;2.80;56.40;;;;;;5106969;28;19911;-67
2021/01/27 07:28:24;;;;;;;;;;;3.20;55.50;;;;;;5107606;28;19908;-68
2021/01/27 07:31:09;;;;;;;;;;;3.30;56.00;;;;;;5101745;28;19972;-67
2021/01/27 07:33:39;;;;;;;;;;;3.50;54.30;;;;;;5089283;28;20058;-68
2021/01/27 07:36:13;;;;;;;;;;;3.70;55.00;;;;;;5107137;28;19903;-67
2021/01/27 07:38:39;;;;;;;;;;;3.80;55.10;;;;;;5107210;28;19915;-66
2021/01/27 07:41:06;;;;;;;;;;;3.90;54.90;;;;;;5107044;28;19907;-67
2021/01/27 07:43:37;;;;;;;;;;;4.10;52.60;;;;;;5106379;28;20671;-67
2021/01/27 07:46:02;;;;;;;;;;;4.30;51.80;;;;;;5106434;28;19918;-66
2021/01/27 07:48:31;;;;;;;;;;;4.50;51.00;;;;;;5106631;28;19904;-66
2021/01/27 07:51:00;;;;;;;;;;;4.40;49.40;;;;;;5105918;28;19915;-68
2021/01/27 07:53:33;;;;;;;;;;;4.20;50.10;;;;;;5106626;28;19945;-67
2021/01/27 07:55:58;;;;;;;;;;;4.20;50.60;;;;;;5088605;28;19907;-67
2021/01/27 07:58:42;;;;;;;;;;;4.20;50.50;;;;;;5106957;28;20654;-67
2021/01/27 08:01:14;;;;;;;;;;;4.30;49.40;;;;;;5106175;28;19943;-68
2021/01/27 08:03:46;;;;;;;;;;;4.20;48.60;;;;;;5088978;28;20230;-67
2021/01/27 08:06:16;;;;;;;;;;;4.10;49.50;;;;;;5106786;28;20321;-68
2021/01/27 08:08:43;;;;;;;;;;;4.20;49.60;;;;;;5088881;28;19904;-68
2021/01/27 08:11:10;;;;;;;;;;;4.40;49.10;;;;;;5089033;28;19915;-66
2021/01/27 08:13:38;;;;;;;;;;;4.60;49.20;;;;;;5107320;28;19914;-69
2021/01/27 08:16:07;;;;;;;;;;;4.80;49.40;;;;;;5088414;28;19916;-68
2021/01/27 08:18:33;;;;;;;;;;;5.00;49.40;;;;;;5106035;28;20394;-66
2021/01/27 08:21:17;;;;;;;;;;;5.30;48.10;;;;;;5089085;28;19908;-66
2021/01/27 08:23:43;;;;;;;;;;;5.50;47.60;;;;;;5091047;28;20561;-66
2021/01/27 08:26:08;;;;;;;;;;;5.70;47.20;;;;;;5092813;28;19990;-67
2021/01/27 08:28:37;;;;;;;;;;;5.80;45.00;;;;;;5110685;28;19968;-67
2021/01/27 08:31:16;;;;;;;;;;;5.80;43.30;;;;;;5092348;28;20006;-66
2021/01/27 08:33:57;;;;;;;;;;;6.10;43.50;;;;;;5092928;28;19924;-68
2021/01/27 08:36:22;;;;;;;;;;;6.40;44.40;;;;;;5111185;28;19908;-67
2021/01/27 08:38:57;;;;;;;;;;;6.80;44.00;;;;;;5092126;28;19912;-67
2021/01/27 08:41:55;;;;;;;;;;;7.10;44.10;;;;;;5110985;28;19907;-67
2021/01/27 08:44:20;;;;;;;;;;;7.40;43.10;;;;;;5064937;28;19912;-67
2021/01/27 08:46:47;;;;;;;;;;;7.90;43.80;;;;;;5111049;28;19908;-66
2021/01/27 08:49:31;;;;;;;;;;;8.20;42.80;;;;;;5110096;28;20382;-68
2021/01/27 08:51:57;;;;;;;;;;;8.40;41.30;;;;;;5110230;28;20416;-67
2021/01/27 08:54:44;;;;;;;;;;;8.60;41.40;;;;;;5110014;28;19912;-68
2021/01/27 08:57:18;;;;;;;;;;;8.80;41.70;;;;;;5082011;28;19956;-68
2021/01/27 08:59:54;;;;;;;;;;;9.10;40.70;;;;;;5110615;28;19907;-66
2021/01/27 09:02:38;;;;;;;;;;;9.40;39.40;;;;;;5110262;28;20880;-67
2021/01/27 09:05:12;;;;;;;;;;;9.40;39.20;;;;;;5110134;28;19918;-68
2021/01/27 09:07:48;;;;;;;;;;;9.60;38.90;;;;;;5110317;28;19908;-68
2021/01/27 09:10:14;;;;;;;;;;;9.70;37.90;;;;;;5110263;28;20413;-67
2021/01/27 09:12:39;;;;;;;;;;;9.90;38.50;;;;;;5109823;28;20371;-67
2021/01/27 09:15:05;;;;;;;;;;;10.10;38.50;;;;;;5109972;28;20291;-66
2021/01/27 09:17:32;;;;;;;;;;;10.20;37.30;;;;;;5110044;28;19903;-68
2021/01/27 09:19:57;;;;;;;;;;;10.20;37.30;;;;;;5109450;28;19911;-68
2021/01/27 09:22:24;;;;;;;;;;;10.20;36.90;;;;;;5109805;28;19912;-66
2021/01/27 09:24:50;;;;;;;;;;;9.90;37.40;;;;;;5109428;28;19918;-66
2021/01/27 09:27:27;;;;;;;;;;;9.50;38.00;;;;;;5110122;28;19907;-66
2021/01/27 09:29:57;;;;;;;;;;;8.90;39.10;;;;;;5109431;28;19922;-67
2021/01/27 09:32:23;;;;;;;;;;;8.50;40.10;;;;;;5110055;28;19907;-66
2021/01/27 09:34:49;;;;;;;;;;;7.90;40.90;;;;;;5108962;28;19965;-66
2021/01/27 09:37:17;;;;;;;;;;;7.30;42.50;;;;;;5091326;28;20335;-65
2021/01/27 09:39:49;;;;;;;;;;;7.10;42.90;;;;;;5109530;28;19907;-66
2021/01/27 09:42:20;;;;;;;;;;;6.80;44.10;;;;;;5109760;28;19908;-65
2021/01/27 09:44:55;;;;;;;;;;;6.40;45.10;;;;;;5090919;28;19908;-67
2021/01/27 09:47:21;;;;;;;;;;;6.40;45.20;;;;;;5109199;28;20334;-67
2021/01/27 09:49:48;;;;;;;;;;;6.20;45.40;;;;;;5109494;28;19919;-66
2021/01/27 09:52:15;;;;;;;;;;;5.90;46.30;;;;;;5108001;28;19911;-66
2021/01/27 09:54:42;;;;;;;;;;;5.80;47.00;;;;;;5109364;28;19968;-67
2021/01/27 09:57:09;;;;;;;;;;;5.70;47.90;;;;;;5090883;28;19904;-66
2021/01/27 09:59:35;;;;;;;;;;;5.60;47.70;;;;;;5109535;28;19927;-64
2021/01/27 10:02:01;;;;;;;;;;;5.50;48.50;;;;;;5109024;28;19904;-66
2021/01/27 10:04:34;;;;;;;;;;;5.60;48.90;;;;;;5109025;28;19908;-66
2021/01/27 10:07:05;;;;;;;;;;;5.60;49.10;;;;;;5109213;28;20703;-66
2021/01/27 10:09:32;;;;;;;;;;;5.50;49.10;;;;;;5108986;28;19937;-66
2021/01/27 10:12:07;;;;;;;;;;;5.50;49.30;;;;;;5109090;28;20443;-66
2021/01/27 10:14:35;;;;;;;;;;;5.50;49.10;;;;;;5109290;28;20351;-64
2021/01/27 10:17:02;;;;;;;;;;;5.40;49.30;;;;;;5090896;28;19922;-67
2021/01/27 10:19:30;;;;;;;;;;;5.50;49.30;;;;;;5090118;28;19925;-67
2021/01/27 10:21:57;;;;;;;;;;;5.30;49.60;;;;;;5108501;28;19915;-66
2021/01/27 10:24:41;;;;;;;;;;;5.30;49.90;;;;;;5109074;28;20009;-67
2021/01/27 10:27:07;;;;;;;;;;;5.30;50.80;;;;;;5108617;28;19960;-67
2021/01/27 10:29:37;;;;;;;;;;;5.30;51.00;;;;;;5089875;28;19927;-66
2021/01/27 10:32:18;;;;;;;;;;;5.20;50.90;;;;;;5109012;28;19904;-67
2021/01/27 10:34:47;;;;;;;;;;;5.20;51.00;;;;;;5108208;28;19912;-66
2021/01/27 10:37:24;;;;;;;;;;;5.20;51.80;;;;;;5108061;28;19994;-68
2021/01/27 10:40:08;;;;;;;;;;;5.20;51.60;;;;;;5108379;28;20010;-67
2021/01/27 10:42:35;;;;;;;;;;;5.20;52.00;;;;;;5108563;28;19911;-64
2021/01/27 10:45:19;;;;;;;;;;;5.00;52.10;;;;;;5107479;28;19998;-65
2021/01/27 10:47:52;;;;;;;;;;;5.00;52.70;;;;;;5108176;28;19904;-66
2021/01/27 10:50:17;;;;;;;;;;;4.90;53.50;;;;;;5107843;28;20380;-65
2021/01/27 10:52:43;;;;;;;;;;;5.00;53.00;;;;;;5107786;28;19954;-66
2021/01/27 10:55:11;;;;;;;;;;;4.90;52.60;;;;;;5108197;28;19908;-67
2021/01/27 10:57:37;;;;;;;;;;;4.90;52.80;;;;;;5090210;28;19912;-67
2021/01/27 11:00:07;;;;;;;;;;;5.00;52.40;;;;;;5089488;28;19953;-67
2021/01/27 11:02:33;;;;;;;;;;;5.10;51.80;;;;;;5108149;28;19937;-66
2021/01/27 11:05:00;;;;;;;;;;;5.10;51.90;;;;;;5108005;28;20619;-66
2021/01/27 11:07:26;;;;;;;;;;;5.20;51.90;;;;;;5106871;28;20340;-67
2021/01/27 11:09:51;;;;;;;;;;;5.30;51.70;;;;;;5106624;28;20006;-65
2021/01/27 11:12:17;;;;;;;;;;;5.30;51.40;;;;;;5107172;28;19904;-67
2021/01/27 11:14:42;;;;;;;;;;;5.30;51.70;;;;;;5106960;28;19912;-68
2021/01/27 11:17:08;;;;;;;;;;;5.30;52.10;;;;;;5088588;28;19904;-65
2021/01/27 11:19:33;;;;;;;;;;;5.30;52.00;;;;;;5088872;28;20030;-67
2021/01/27 11:21:59;;;;;;;;;;;5.30;53.10;;;;;;5088214;28;19914;-66
2021/01/27 11:24:25;;;;;;;;;;;5.20;53.00;;;;;;5087979;28;19911;-65
2021/01/27 11:26:50;;;;;;;;;;;5.10;53.10;;;;;;5106919;28;20018;-66
2021/01/27 11:29:16;;;;;;;;;;;5.10;53.30;;;;;;5106745;28;19920;-66
2021/01/27 11:31:41;;;;;;;;;;;5.00;54.00;;;;;;5106363;28;19907;-66
2021/01/27 11:34:07;;;;;;;;;;;4.90;54.00;;;;;;5106945;28;19907;-66
2021/01/27 11:36:32;;;;;;;;;;;4.90;54.40;;;;;;5106827;28;19908;-66
2021/01/27 11:38:58;;;;;;;;;;;5.00;53.90;;;;;;5106273;28;20014;-67
2021/01/27 11:41:23;;;;;;;;;;;5.00;52.40;;;;;;5088008;28;19947;-66
2021/01/27 11:43:49;;;;;;;;;;;5.20;52.10;;;;;;5088248;28;19903;-66
2021/01/27 11:46:16;;;;;;;;;;;5.20;52.10;;;;;;5106537;28;19914;-67
2021/01/27 11:48:42;;;;;;;;;;;5.20;53.10;;;;;;5106189;28;19908;-68
2021/01/27 11:51:08;;;;;;;;;;;5.30;51.80;;;;;;5106143;28;19916;-66
2021/01/27 11:53:34;;;;;;;;;;;5.30;50.80;;;;;;5087818;28;19918;-66
2021/01/27 11:56:00;;;;;;;;;;;5.30;51.50;;;;;;5106291;28;19904;-66
2021/01/27 11:58:25;;;;;;;;;;;5.30;51.60;;;;;;5105849;28;19904;-66
2021/01/27 12:00:52;;;;;;;;;;;5.30;51.60;;;;;;5106298;28;19907;-66
2021/01/27 12:03:18;;;;;;;;;;;5.30;50.40;;;;;;5106136;28;19980;-66
2021/01/27 12:05:44;;;;;;;;;;;5.40;51.60;;;;;;5106220;28;20447;-65
2021/01/27 12:08:10;;;;;;;;;;;5.40;50.80;;;;;;5106315;28;19908;-66
2021/01/27 12:10:37;;;;;;;;;;;5.50;50.60;;;;;;5105981;28;19958;-66
2021/01/27 12:13:03;;;;;;;;;;;5.40;51.30;;;;;;5106881;28;19907;-66
2021/01/27 12:15:29;;;;;;;;;;;5.40;49.70;;;;;;5106640;28;20002;-67
2021/01/27 12:17:54;;;;;;;;;;;5.30;50.30;;;;;;5106069;28;20014;-67
2021/01/27 12:20:20;;;;;;;;;;;5.30;50.80;;;;;;5106958;28;19912;-66
2021/01/27 12:22:45;;;;;;;;;;;5.40;52.30;;;;;;5106503;28;19954;-67
2021/01/27 12:25:11;;;;;;;;;;;5.40;52.60;;;;;;5107105;28;19919;-67
2021/01/27 12:27:37;;;;;;;;;;;5.40;52.50;;;;;;5107077;28;19903;-67
2021/01/27 12:30:06;;;;;;;;;;;5.20;52.30;;;;;;5106601;28;20632;-67
2021/01/27 12:32:31;;;;;;;;;;;5.10;52.70;;;;;;5106726;28;19949;-68
2021/01/27 12:34:57;;;;;;;;;;;5.10;54.00;;;;;;5107129;28;19908;-66
2021/01/27 12:37:22;;;;;;;;;;;5.10;53.80;;;;;;5106209;28;19982;-66
2021/01/27 12:39:48;;;;;;;;;;;5.00;54.80;;;;;;5106759;28;19907;-67
2021/01/27 12:42:13;;;;;;;;;;;5.00;54.70;;;;;;5106537;28;20323;-66
2021/01/27 12:44:43;;;;;;;;;;;5.00;54.70;;;;;;5088378;28;20360;-67
2021/01/27 12:47:09;;;;;;;;;;;4.90;54.70;;;;;;5106469;28;19972;-66
2021/01/27 12:49:34;;;;;;;;;;;4.90;55.20;;;;;;5106256;28;19919;-66
2021/01/27 12:52:00;;;;;;;;;;;4.90;55.80;;;;;;5087928;28;19920;-66
2021/01/27 12:54:25;;;;;;;;;;;5.00;55.20;;;;;;5106485;28;19911;-66
2021/01/27 12:56:51;;;;;;;;;;;5.00;55.90;;;;;;5106614;28;19914;-67
2021/01/27 12:59:16;;;;;;;;;;;5.00;55.20;;;;;;5106501;28;19907;-67
2021/01/27 13:01:43;;;;;;;;;;;5.00;55.00;;;;;;5106778;28;20547;-66
2021/01/27 13:04:09;;;;;;;;;;;4.90;55.20;;;;;;5106459;28;20480;-65
2021/01/27 13:06:34;;;;;;;;;;;5.00;55.30;;;;;;5105954;28;19939;-66
2021/01/27 13:09:00;;;;;;;;;;;4.90;55.10;;;;;;5108216;28;19961;-66
2021/01/27 13:11:25;;;;;;;;;;;4.90;55.50;;;;;;5110194;28;19919;-66
2021/01/27 13:13:51;;;;;;;;;;;4.80;55.70;;;;;;5110008;28;19912;-67
2021/01/27 13:16:16;;;;;;;;;;;4.80;56.40;;;;;;5110435;28;19957;-67
2021/01/27 13:18:41;;;;;;;;;;;4.80;56.70;;;;;;5110284;28;19927;-65
2021/01/27 13:21:08;;;;;;;;;;;4.80;56.60;;;;;;5109582;28;20006;-67
2021/01/27 13:23:34;;;;;;;;;;;4.80;56.00;;;;;;5110079;28;19904;-66
2021/01/27 13:26:00;;;;;;;;;;;4.80;56.00;;;;;;5091705;28;19915;-66
2021/01/27 13:28:25;;;;;;;;;;;4.80;56.00;;;;;;5109983;28;19914;-65
2021/01/27 13:30:51;;;;;;;;;;;4.70;56.00;;;;;;5108716;28;19922;-66
2021/01/27 13:33:16;;;;;;;;;;;4.70;56.30;;;;;;5091597;28;20360;-66
2021/01/27 13:35:44;;;;;;;;;;;4.60;56.40;;;;;;5109789;28;19915;-67
2021/01/27 13:38:12;;;;;;;;;;;4.60;56.30;;;;;;5109528;28;19910;-67
2021/01/27 13:40:38;;;;;;;;;;;4.60;56.80;;;;;;5110029;28;20276;-67
2021/01/27 13:43:03;;;;;;;;;;;4.50;57.00;;;;;;5091351;28;19929;-67
2021/01/27 13:45:29;;;;;;;;;;;4.50;57.30;;;;;;5110075;28;19907;-67
2021/01/27 13:47:56;;;;;;;;;;;4.50;57.10;;;;;;5109342;28;19904;-66
2021/01/27 13:50:21;;;;;;;;;;;4.50;57.20;;;;;;5090940;28;19949;-67
2021/01/27 13:52:47;;;;;;;;;;;4.50;57.10;;;;;;5109716;28;19951;-67
2021/01/27 13:55:13;;;;;;;;;;;4.50;56.90;;;;;;5109565;28;19908;-67
2021/01/27 13:57:39;;;;;;;;;;;4.40;57.30;;;;;;5109481;28;19915;-67
2021/01/27 14:00:05;;;;;;;;;;;4.30;57.20;;;;;;5109359;28;19908;-67
2021/01/27 14:02:31;;;;;;;;;;;4.30;57.10;;;;;;5091283;28;19965;-66
2021/01/27 14:04:56;;;;;;;;;;;4.20;57.40;;;;;;5109010;28;19951;-67
2021/01/27 14:07:22;;;;;;;;;;;4.10;57.20;;;;;;5109055;28;19922;-66
2021/01/27 14:09:47;;;;;;;;;;;4.00;58.00;;;;;;5109037;28;20452;-66
2021/01/27 14:12:13;;;;;;;;;;;3.90;57.00;;;;;;5109033;28;19908;-67
2021/01/27 14:14:40;;;;;;;;;;;3.90;57.50;;;;;;5108933;28;20004;-66
2021/01/27 14:17:05;;;;;;;;;;;3.80;58.10;;;;;;5091202;28;20442;-66
2021/01/27 14:19:33;;;;;;;;;;;3.70;57.70;;;;;;5108665;28;19990;-66
2021/01/27 14:21:58;;;;;;;;;;;3.70;57.70;;;;;;5108656;28;19904;-66
2021/01/27 14:24:24;;;;;;;;;;;3.70;58.00;;;;;;5109125;28;19919;-66
2021/01/27 14:26:49;;;;;;;;;;;3.70;58.60;;;;;;5109109;28;19961;-66
2021/01/27 14:29:15;;;;;;;;;;;3.60;58.00;;;;;;5108839;28;19919;-65
2021/01/27 14:31:41;;;;;;;;;;;3.60;57.00;;;;;;5109052;28;20363;-66
2021/01/27 14:34:06;;;;;;;;;;;3.60;57.20;;;;;;5090210;28;19910;-66
2021/01/27 14:36:32;;;;;;;;;;;3.50;57.10;;;;;;5090180;28;19964;-66